Tiempo atmosférico en la estación meteorológica de Fuente De Cantos, Badajoz (602 m.)



Fecha
DESCASC
Temp. máxima en grados centígrados (hora)
DESCASC
Temp. mínima en grados centígrados (hora)
DESCASC
Temp. media en grados centígrados
DESCASC
Racha de viento máxima en m/sg (hora)
DESCASC
Velocidad máxima media en intervalos de 10 minutos(hora)
DESCASC
Precipitaciones diarias en mm
DESCASC
Precipitaciones de 00:00 a 06:00 en mm
DESCASC
Precipitaciones de 06:00 a 12:00 en mm
DESCASC
Precipitaciones de 12:00 a 18:00 en mm
DESCASC
Precipitaciones de 18:00 a 24:00 en mm
DESCASC
10-07-2020 36.3 (16:40) 20.4 (06:40) 28.3 9.44 (15:30) 6.11 (18:10) 0 0 0 0 0
09-07-2020 34.2 (17:40) 15.5 (07:00) 24.9 9.17 (13:10) 5.28 (05:00) 0 0 0 0 0
08-07-2020 36.5 (14:30) 21.8 (08:00) 29.1 16.39 (14:20) 8.89 (19:10) 0 0 0 0 0
07-07-2020 40.2 (18:00) 24.5 (05:00) 32.4 13.33 (16:00) 7.22 (15:30) 0 0 0 0 0
06-07-2020 40.1 (17:50) 22 (00:00) 31 9.17 (20:20) 6.11 (21:10) 0 0 0 0 0
05-07-2020 37.6 (17:20) 20.7 (00:00) 29.1 10.28 (12:40) 7.22 (08:30) 0 0 0 0 0
04-07-2020 36.7 (17:50) 19.3 (00:00) 28 9.17 (16:10) 5.83 (22:40) 0 0 0 0 0
03-07-2020 32.9 (17:10) 10.9 (06:50) 21.9 8.06 (16:50) 5.83 (00:30) 0 0 0 0 0
02-07-2020 31.4 (17:50) 15.5 (00:00) 23.4 13.89 (17:10) 8.06 (20:00) 0 0 0 0 0
01-07-2020 33.9 (17:00) 18.3 (00:00) 26.1 10 (18:20) 6.67 (19:00) 0 0 0 0 0
30-06-2020 36.4 (18:00) 22.4 (00:00) 29.4 11.39 (18:20) 7.5 (19:50) 0 0 0 0 0
29-06-2020 37.3 (17:20) 19.7 (00:00) 28.5 12.22 (15:30) 6.67 (15:40) 0 0 0 0 0
28-06-2020 34.9 (18:10) 17.1 (00:00) 26 9.72 (19:00) 6.94 (21:10) 0 0 0 0 0
27-06-2020 31 (18:50) 13.6 (00:00) 22.3 9.17 (21:30) 6.67 (21:30) 0 0 0 0 0
26-06-2020 28.8 (16:10) 13.7 (00:00) 21.2 14.17 (15:00) 7.22 (15:10) 0 0 0 0 0
25-06-2020 32.1 (16:30) 18.2 (00:00) 25.1 10 (15:00) 6.94 (20:10) 0 0 0 0 0
24-06-2020 35.3 (18:00) 18.8 (00:00) 27 11.67 (15:00) 6.39 (18:50) 0 0 0 0 0
23-06-2020 37.6 (16:30) 22.4 (00:00) 30 10 (19:00) 6.94 (06:30) 0 0 0 0 0
22-06-2020 37.2 (16:40) 19.2 (00:00) 28.2 10 (15:10) 6.67 (23:50) 0 0 0 0 0
21-06-2020 33.5 (17:50) 14.3 (00:00) 23.9 8.61 (17:20) 5.28 (20:40) 0 0 0 0 0
20-06-2020 32.8 (17:00) 15.5 (00:00) 24.1 9.72 (20:00) 5.83 (15:50) 0 0 0 0 0
19-06-2020 29.2 (17:50) 10.1 (00:00) 19.7 11.67 (17:50) 7.22 (17:20) 0 0 0 0 0
18-06-2020 28.4 (16:30) 11 (00:00) 19.7 9.17 (17:40) 6.11 (17:40) 0 0 0 0 0
17-06-2020 25.5 (18:10) 10.2 (00:00) 17.8 11.39 (15:10) 7.22 (14:30) -- 0 0 -- 0
16-06-2020 25.5 (18:30) 10.9 (00:00) 18.2 13.06 (14:40) 8.33 (14:00) 0 0 0 0 0
15-06-2020 26 (17:30) 10.7 (00:00) 18.3 11.11 (13:30) 6.94 (16:40) 0 0 0 0 0
14-06-2020 25.7 (16:30) 11 (00:00) 18.4 10.83 (17:30) 7.22 (18:10) 0 0 0 0 0
13-06-2020 23.6 (17:00) 8.3 (00:00) 16 11.94 (13:40) 6.39 (17:40) 0.2 0 0 0.2 0
12-06-2020 20.4 (19:30) 9 (00:00) 14.7 12.22 (21:10) 9.44 (03:00) 0.8 0 0 0 0.8
11-06-2020 22.2 (14:20) 8.9 (00:00) 15.6 14.72 (17:00) 10.83 (20:10) 0 0 0 0 0

Gráficas

Temp. máximas Temp. mínimas Temp. medias Precipitaciones Rachas de viento máximas Velocidades máximas media en intervalos de 10 minutos

Datos horarios

Fecha y hora oficial Temperatura (ºC) Velocidad del viento (km/h) Dirección del viento Racha (km/h) Dirección de racha Precipitación (mm) Presión (hPa) Tendencia (hPa) Humedad (%)
2020-07-10 23:00:00 28.9 8 Sur 22 Sudeste 0 -- -- 36
2020-07-10 22:00:00 31.2 10 Norte 22 Norte 0 -- -- 25
2020-07-10 21:00:00 34.2 15 Norte 23 Noroeste 0 -- -- 21
2020-07-10 20:00:00 35.2 15 Nordeste 29 Norte 0 -- -- 21
2020-07-10 19:00:00 35.9 16 Norte 31 Norte 0 -- -- 20
2020-07-10 18:00:00 35.9 11 Nordeste 33 Noroeste 0 -- -- 21
2020-07-10 17:00:00 36.3 10 Noroeste 30 Noroeste 0 -- -- 22
2020-07-10 16:00:00 35 17 Nordeste 34 Norte 0 -- -- 23
2020-07-10 15:00:00 35.5 11 Norte 28 Norte 0 -- -- 24
2020-07-10 14:00:00 34.4 8 Nordeste 25 Este 0 -- -- 26
2020-07-10 13:00:00 33.3 9 Norte 24 Noroeste 0 -- -- 30
2020-07-10 12:00:00 31.1 9 Noroeste 20 Noroeste 0 -- -- 35
2020-07-10 11:00:00 28.6 4 Norte 10 Noroeste 0 -- -- 40
2020-07-10 10:00:00 26.5 5 Norte 10 Norte 0 -- -- 45
2020-07-10 09:00:00 23.5 3 Oeste 9 Sudoeste 0 -- -- 52
2020-07-10 08:00:00 21 8 Sudoeste 11 Sudoeste 0 -- -- 57
2020-07-10 07:00:00 20.4 8 Sudoeste 12 Sudoeste 0 -- -- 58
2020-07-10 06:00:00 20.8 9 Sudoeste 12 Sudoeste 0 -- -- 57
2020-07-10 05:00:00 21 6 Sur 9 Sur 0 -- -- 55
2020-07-10 04:00:00 21.1 5 Sur 10 Sudoeste 0 -- -- 52
2020-07-10 03:00:00 21.2 8 Sur 14 Oeste 0 -- -- 45
2020-07-10 02:00:00 21.9 10 Sudoeste 18 Sudoeste 0 -- -- 39
2020-07-10 01:00:00 23.9 4 Sudoeste 13 Sudeste 0 -- -- 27
2020-07-10 00:00:00 24.7 7 Sudoeste 19 Norte 0 -- -- 27
2020-07-09 23:00:00 26.1 17 Noroeste 21 Noroeste 0 -- -- 22
2020-07-09 22:00:00 28.5 17 Norte 21 Noroeste 0 -- -- 22
2020-07-09 21:00:00 31.6 17 Norte 27 Noroeste 0 -- -- 19
2020-07-09 20:00:00 32.9 6 Noroeste 29 Noroeste 0 -- -- 17
2020-07-09 19:00:00 33.5 10 Norte 31 Noroeste 0 -- -- 16
2020-07-09 18:00:00 34.1 9 Norte 27 Noroeste 0 -- -- 17
2020-07-09 17:00:00 33.8 13 Oeste 31 Noroeste 0 -- -- 16
2020-07-09 16:00:00 33.2 9 Nordeste 33 Este 0 -- -- 19
2020-07-09 15:00:00 32.6 12 Este 25 Este 0 -- -- 21
2020-07-09 14:00:00 31.7 11 Sudoeste 33 Oeste 0 -- -- 20
2020-07-09 13:00:00 29.6 13 Oeste 22 Oeste 0 -- -- 22
2020-07-09 12:00:00 27.6 8 Oeste 21 Oeste 0 -- -- 23
2020-07-09 11:00:00 26.6 8 Noroeste 17 Sudeste 0 -- -- 24
2020-07-09 10:00:00 23.9 12 Sudeste 18 Sudeste 0 -- -- 29
2020-07-09 09:00:00 19.8 9 Este 17 Este 0 -- -- 51
2020-07-09 08:00:00 17.7 11 Sudeste 20 Sudeste 0 -- -- 53
2020-07-09 07:00:00 15.5 11 Este 25 Este 0 -- -- 69
2020-07-09 06:00:00 16.9 19 Este 26 Este 0 -- -- 59
2020-07-09 05:00:00 17.9 19 Este 26 Sudeste 0 -- -- 52
2020-07-09 04:00:00 18.6 17 Este 21 Este 0 -- -- 51
2020-07-09 03:00:00 19.1 6 Sudeste 12 Oeste 0 -- -- 56
2020-07-09 02:00:00 19.3 10 Oeste 17 Sudoeste 0 -- -- 56
2020-07-09 01:00:00 20.5 13 Sudoeste 19 Oeste 0 -- -- 50
2020-07-09 00:00:00 22.1 16 Oeste 23 Oeste 0 -- -- 44
2020-07-08 23:00:00 24.6 13 Oeste 21 Oeste 0 -- -- 35
2020-07-08 22:00:00 26.2 17 Oeste 32 Oeste 0 -- -- 30
2020-07-08 21:00:00 29.5 25 Oeste 43 Oeste 0 -- -- 25
2020-07-08 20:00:00 31.7 31 Oeste 45 Oeste 0 -- -- 20
2020-07-08 19:00:00 33.7 28 Oeste 53 Oeste 0 -- -- 17
2020-07-08 18:00:00 34.8 31 Sudoeste 49 Sudoeste 0 -- -- 14
2020-07-08 17:00:00 35.3 30 Sudoeste 47 Sudoeste 0 -- -- 21
2020-07-08 16:00:00 35.9 26 Oeste 47 Oeste 0 -- -- 21
2020-07-08 15:00:00 36.1 25 Sur 59 Sudoeste 0 -- -- 14
2020-07-08 14:00:00 35.7 18 Sudoeste 42 Sur 0 -- -- 17
2020-07-08 13:00:00 33.5 11 Oeste 27 Oeste 0 -- -- 22
2020-07-08 12:00:00 32.7 6 Sudeste 12 Sur 0 -- -- 22
2020-07-08 11:00:00 29.9 5 Sudoeste 10 Sur 0 -- -- 25
2020-07-08 10:00:00 26.3 5 Sudoeste 9 Sudoeste 0 -- -- 36
2020-07-08 09:00:00 23.5 4 Noroeste 10 Sudoeste 0 -- -- 39
2020-07-08 08:00:00 21.8 7 Sudoeste 9 Sudoeste 0 -- -- 39
2020-07-08 07:00:00 22.6 6 Oeste 9 Oeste 0 -- -- 35
2020-07-08 06:00:00 23 9 Oeste 11 Oeste 0 -- -- 34
2020-07-08 05:00:00 23.5 9 Oeste 14 Sudoeste 0 -- -- 32
2020-07-08 04:00:00 25.6 6 Oeste 11 Sudoeste 0 -- -- 28
2020-07-08 03:00:00 25.4 9 Sudoeste 18 Sudoeste 0 -- -- 34
2020-07-08 02:00:00 27.2 9 Oeste 17 Sudoeste 0 -- -- 33
2020-07-08 01:00:00 28.2 13 Oeste 18 Sudoeste 0 -- -- 31
2020-07-08 00:00:00 30.1 11 Sudoeste 14 Sudoeste 0 -- -- 26
2020-07-07 23:00:00 31.3 11 Sudoeste 19 Sudoeste 0 -- -- 24
2020-07-07 22:00:00 32.9 11 Sudoeste 27 Sudoeste 0 -- -- 22
2020-07-07 21:00:00 35.9 23 Sudoeste 32 Sur 0 -- -- 19
2020-07-07 20:00:00 38.1 22 Sur 34 Sur 0 -- -- 17
2020-07-07 19:00:00 39.2 14 Oeste 30 Sudoeste 0 -- -- 15
2020-07-07 18:00:00 40.2 15 Sudoeste 39 Sudoeste 0 -- -- 15
2020-07-07 17:00:00 39.8 16 Sudoeste 35 Sudoeste 0 -- -- 15
2020-07-07 16:00:00 39.5 23 Oeste 48 Oeste 0 -- -- 16
2020-07-07 15:00:00 38.9 25 Oeste 42 Sudoeste 0 -- -- 15
2020-07-07 14:00:00 38.5 24 Oeste 37 Sudoeste 0 -- -- 15
2020-07-07 13:00:00 37.4 21 Sudoeste 37 Sudoeste 0 -- -- 16
2020-07-07 12:00:00 36 9 Sudoeste 22 Sudoeste 0 -- -- 17
2020-07-07 11:00:00 34.3 7 Sudoeste 16 Sudoeste 0 -- -- 17
2020-07-07 10:00:00 32.1 4 Sur 8 Sudeste 0 -- -- 18
2020-07-07 09:00:00 28.7 6 Sudeste 8 Sudeste 0 -- -- 23
2020-07-07 08:00:00 26 6 Sur 7 Sur 0 -- -- 27
2020-07-07 07:00:00 25 5 Sudeste 6 Sudeste 0 -- -- 32
2020-07-07 06:00:00 24.9 5 Sur 7 Sur 0 -- -- 36
2020-07-07 05:00:00 24.5 5 Sur 8 Sudoeste 0 -- -- 39
2020-07-07 04:00:00 25.1 6 Sudoeste 9 Sudoeste 0 -- -- 37
2020-07-07 03:00:00 25.8 5 Sudoeste 7 Sudoeste 0 -- -- 35
2020-07-07 02:00:00 26.5 3 Sudoeste 7 Oeste 0 -- -- 33
2020-07-07 01:00:00 27.2 5 Oeste 19 Oeste 0 -- -- 31
2020-07-07 00:00:00 28.4 13 Oeste 19 Sudoeste 0 -- -- 28
2020-07-06 23:00:00 30.3 13 Sudoeste 18 Sudoeste 0 -- -- 20
2020-07-06 22:00:00 33.1 13 Oeste 30 Oeste 0 -- -- 17
2020-07-06 21:00:00 36.7 21 Oeste 33 Noroeste 0 -- -- 16
2020-07-06 20:00:00 38.4 12 Oeste 32 Noroeste 0 -- -- 16
2020-07-06 19:00:00 39.5 16 Noroeste 31 Noroeste 0 -- -- 15
2020-07-06 18:00:00 39.9 16 Noroeste 28 Oeste 0 -- -- 13
2020-07-06 17:00:00 39.9 15 Oeste 29 Sudoeste 0 -- -- 13
2020-07-06 16:00:00 39.6 14 Sudoeste 30 Sudoeste 0 -- -- 14
2020-07-06 15:00:00 38.5 10 Norte 23 Norte 0 -- -- 15
2020-07-06 14:00:00 37.8 8 Nordeste 21 Norte 0 -- -- 17
2020-07-06 13:00:00 36.6 11 Norte 17 Norte 0 -- -- 17
2020-07-06 12:00:00 35.4 5 Nordeste 12 Nordeste 0 -- -- 21
2020-07-06 11:00:00 32.4 5 Sudeste 14 Este 0 -- -- 27
2020-07-06 10:00:00 29.8 6 Sudeste 10 Este 0 -- -- 31
2020-07-06 09:00:00 26.2 8 Este 16 Este 0 -- -- 39
2020-07-06 08:00:00 24.2 5 Sudeste 6 Sudeste 0 -- -- 41
2020-07-06 07:00:00 23.5 4 Sudoeste 9 Sudoeste 0 -- -- 43
2020-07-06 06:00:00 23 6 Sudoeste 10 Sur 0 -- -- 45
2020-07-06 05:00:00 22.1 9 Sudoeste 12 Sudoeste 0 -- -- 48
2020-07-06 04:00:00 22.3 11 Oeste 13 Sudoeste 0 -- -- 48
2020-07-06 03:00:00 22.9 12 Oeste 17 Oeste 0 -- -- 47
2020-07-06 02:00:00 24.3 13 Oeste 23 Sudoeste 0 -- -- 44
2020-07-06 01:00:00 25.5 16 Sudoeste 22 Sudoeste 0 -- -- 42
2020-07-06 00:00:00 27.1 13 Oeste 19 Sudoeste 0 -- -- 38
2020-07-05 23:00:00 28.9 11 Sudoeste 19 Sudoeste 0 -- -- 35
2020-07-05 22:00:00 31.4 9 Sur 22 Oeste 0 -- -- 27
2020-07-05 21:00:00 35.5 3 Este 19 Nordeste 0 -- -- 17
2020-07-05 20:00:00 36.4 11 Nordeste 22 Nordeste 0 -- -- 16
2020-07-05 19:00:00 37.2 5 Este 22 Norte 0 -- -- 16
2020-07-05 18:00:00 37.4 15 Nordeste 26 Nordeste 0 -- -- 17
2020-07-05 17:00:00 37.4 5 Norte 26 Este 0 -- -- 18
2020-07-05 16:00:00 36.5 7 Nordeste 25 Este 0 -- -- 20
2020-07-05 15:00:00 35.5 11 Este 32 Sudeste 0 -- -- 20
2020-07-05 14:00:00 34.9 18 Sudeste 36 Sudeste 0 -- -- 22
2020-07-05 13:00:00 34 22 Sudeste 37 Sudeste 0 -- -- 24
2020-07-05 12:00:00 33 24 Sudeste 35 Sudeste 0 -- -- 26
2020-07-05 11:00:00 32 20 Sudeste 28 Sudeste 0 -- -- 27
2020-07-05 10:00:00 28.5 12 Este 22 Este 0 -- -- 34
2020-07-05 09:00:00 24.9 18 Este 33 Este 0 -- -- 41
2020-07-05 08:00:00 21 22 Este 26 Este 0 -- -- 44
2020-07-05 07:00:00 23.3 15 Este 24 Este 0 -- -- 35
2020-07-05 06:00:00 22.7 4 Nordeste 14 Sudeste 0 -- -- 31
2020-07-05 05:00:00 22.3 13 Sudeste 16 Sudeste 0 -- -- 34
2020-07-05 04:00:00 23.8 3 Noroeste 24 Oeste 0 -- -- 29
2020-07-05 03:00:00 25.1 3 Sur 6 Oeste 0 -- -- 32
2020-07-05 02:00:00 25.4 5 Noroeste 13 Este 0 -- -- 31
2020-07-05 01:00:00 28.3 12 Este 17 Este 0 -- -- 25
2020-07-05 00:00:00 27.8 17 Este 24 Nordeste 0 -- -- 23
2020-07-04 23:00:00 27.9 19 Nordeste 26 Nordeste 0 -- -- 24
2020-07-04 22:00:00 30.4 16 Norte 26 Norte 0 -- -- 21
2020-07-04 21:00:00 34.4 19 Norte 33 Nordeste 0 -- -- 18
2020-07-04 20:00:00 36.1 9 Norte 21 Sudeste 0 -- -- 15
2020-07-04 19:00:00 36.3 8 Sur 22 Este 0 -- -- 16
2020-07-04 18:00:00 36.5 5 Noroeste 25 Este 0 -- -- 16
2020-07-04 17:00:00 36.1 14 Este 33 Sudeste 0 -- -- 16
2020-07-04 16:00:00 36.4 10 Sudeste 27 Este 0 -- -- 15
2020-07-04 15:00:00 34.9 14 Sudeste 28 Sudeste 0 -- -- 16
2020-07-04 14:00:00 34.1 12 Sudeste 25 Sudeste 0 -- -- 15
2020-07-04 13:00:00 32.7 10 Sudeste 19 Este 0 -- -- 18
2020-07-04 12:00:00 31.5 8 Este 18 Este 0 -- -- 20
2020-07-04 11:00:00 29.3 9 Este 14 Nordeste 0 -- -- 26
2020-07-04 10:00:00 26.3 4 Nordeste 8 Este 0 -- -- 36
2020-07-04 09:00:00 23.2 3 Nordeste 7 Nordeste 0 -- -- 44
2020-07-04 08:00:00 20.8 5 Nordeste 6 Nordeste 0 -- -- 45
2020-07-04 07:00:00 19.6 3 Sur 5 Sudeste 0 -- -- 46
2020-07-04 06:00:00 19.5 0 Calma 5 Sudeste 0 -- -- 47
2020-07-04 05:00:00 19.6 3 Sur 5 Sur 0 -- -- 40
2020-07-04 04:00:00 20.2 4 Oeste 5 Oeste 0 -- -- 40
2020-07-04 03:00:00 20.4 4 Noroeste 9 Norte 0 -- -- 41
2020-07-04 02:00:00 20.9 5 Noroeste 12 Noroeste 0 -- -- 38
2020-07-04 01:00:00 21.9 11 Noroeste 20 Noroeste 0 -- -- 31
2020-07-04 00:00:00 23.4 2 Noroeste 19 Noroeste 0 -- -- 25
2020-07-03 23:00:00 24.5 14 Norte 19 Norte 0 -- -- 25
2020-07-03 22:00:00 27 17 Norte 26 Norte 0 -- -- 23
2020-07-03 21:00:00 30.5 20 Norte 24 Norte 0 -- -- 20
2020-07-03 20:00:00 32 12 Norte 27 Noroeste 0 -- -- 19
2020-07-03 19:00:00 32.5 11 Norte 29 Norte 0 -- -- 18
2020-07-03 18:00:00 32.5 5 Sudoeste 27 Oeste 0 -- -- 18
2020-07-03 17:00:00 32.5 14 Oeste 29 Oeste 0 -- -- 17
2020-07-03 16:00:00 32.4 5 Norte 25 Oeste 0 -- -- 17
2020-07-03 15:00:00 30.6 13 Sudoeste 25 Oeste 0 -- -- 19
2020-07-03 14:00:00 29.2 10 Norte 24 Norte 0 -- -- 21
2020-07-03 13:00:00 27.9 11 Norte 21 Nordeste 0 -- -- 24
2020-07-03 12:00:00 24.8 8 Norte 16 Nordeste 0 -- -- 35
2020-07-03 11:00:00 21.9 8 Norte 15 Noroeste 0 -- -- 44
2020-07-03 10:00:00 18.4 3 Nordeste 10 Sur 0 -- -- 52
2020-07-03 09:00:00 14.3 6 Sur 9 Sudoeste 0 -- -- 64
2020-07-03 08:00:00 11.5 7 Sudoeste 10 Sudoeste 0 -- -- 73
2020-07-03 07:00:00 10.9 8 Oeste 12 Sudoeste 0 -- -- 74
2020-07-03 06:00:00 11.3 10 Sudoeste 14 Sudoeste 0 -- -- 72
2020-07-03 05:00:00 11.9 10 Oeste 18 Oeste 0 -- -- 69
2020-07-03 04:00:00 13.3 13 Sudoeste 19 Oeste 0 -- -- 63
2020-07-03 03:00:00 14.8 11 Sudoeste 17 Oeste 0 -- -- 58
2020-07-03 02:00:00 16.1 12 Oeste 22 Noroeste 0 -- -- 53
2020-07-03 01:00:00 18 19 Noroeste 24 Noroeste 0 -- -- 49
2020-07-03 00:00:00 20.1 15 Noroeste 22 Noroeste 0 -- -- 45
2020-07-02 23:00:00 22 15 Noroeste 30 Noroeste 0 -- -- 42
2020-07-02 22:00:00 24.6 25 Noroeste 35 Oeste 0 -- -- 37
2020-07-02 21:00:00 27.4 24 Oeste 37 Oeste 0 -- -- 31
2020-07-02 20:00:00 29 29 Oeste 44 Oeste 0 -- -- 31
2020-07-02 19:00:00 30.3 24 Oeste 45 Oeste 0 -- -- 29
2020-07-02 18:00:00 31.2 23 Oeste 50 Oeste 0 -- -- 26
2020-07-02 17:00:00 31.2 22 Oeste 40 Oeste 0 -- -- 26
2020-07-02 16:00:00 30.9 22 Oeste 44 Oeste 0 -- -- 26
2020-07-02 15:00:00 30.3 23 Oeste 43 Oeste 0 -- -- 28
2020-07-02 14:00:00 29.5 19 Oeste 33 Oeste 0 -- -- 29
2020-07-02 13:00:00 28.2 18 Oeste 31 Noroeste 0 -- -- 32
2020-07-02 12:00:00 26.6 15 Oeste 24 Oeste 0 -- -- 33
2020-07-02 11:00:00 24.2 14 Oeste 22 Oeste 0 -- -- 47
2020-07-02 10:00:00 22 10 Oeste 17 Oeste 0 -- -- 53
2020-07-02 09:00:00 19 10 Oeste 14 Oeste 0 -- -- 66
2020-07-02 08:00:00 16.2 8 Sudoeste 12 Sudoeste 0 -- -- 74
2020-07-02 07:00:00 15.8 10 Sudoeste 12 Oeste 0 -- -- 73
2020-07-02 06:00:00 17.2 8 Sudoeste 12 Sudoeste 0 -- -- 70
2020-07-02 05:00:00 17.8 8 Sudoeste 10 Sudoeste 0 -- -- 67
2020-07-02 04:00:00 18.7 5 Sudoeste 10 Oeste 0 -- -- 64
2020-07-02 03:00:00 19.6 8 Oeste 17 Oeste 0 -- -- 61
2020-07-02 02:00:00 20.6 7 Oeste 16 Oeste 0 -- -- 55
2020-07-02 01:00:00 22.1 6 Noroeste 17 Noroeste 0 -- -- 47
2020-07-02 00:00:00 23.8 12 Noroeste 17 Noroeste 0 -- -- 43
2020-07-01 23:00:00 25.7 12 Oeste 22 Oeste 0 -- -- 34
2020-07-01 22:00:00 27.9 19 Oeste 28 Oeste 0 -- -- 31
2020-07-01 21:00:00 31 21 Oeste 30 Oeste 0 -- -- 26
2020-07-01 20:00:00 32.5 23 Oeste 33 Noroeste 0 -- -- 25
2020-07-01 19:00:00 33.3 24 Noroeste 36 Sudoeste 0 -- -- 26
2020-07-01 18:00:00 33.7 17 Oeste 36 Oeste 0 -- -- 24
2020-07-01 17:00:00 33.9 17 Oeste 35 Oeste 0 -- -- 24
2020-07-01 16:00:00 33.2 16 Noroeste 31 Oeste 0 -- -- 26
2020-07-01 15:00:00 32.4 10 Sudoeste 31 Oeste 0 -- -- 28
2020-07-01 14:00:00 31.7 16 Oeste 33 Sudoeste 0 -- -- 30
2020-07-01 13:00:00 30.8 22 Sudoeste 33 Sudoeste 0 -- -- 30
2020-07-01 12:00:00 29.5 23 Oeste 32 Oeste 0 -- -- 30
2020-07-01 11:00:00 27 14 Sudoeste 25 Sudoeste 0 -- -- 39
2020-07-01 10:00:00 23.2 5 Oeste 9 Oeste 0 -- -- 52
2020-07-01 09:00:00 19.9 5 Noroeste 6 Noroeste 0 -- -- 64
2020-07-01 08:00:00 19.3 0 Calma 7 Sudeste 0 -- -- 62
2020-07-01 07:00:00 18.3 6 Sudeste 8 Sudoeste 0 -- -- 66
2020-07-01 06:00:00 18.9 5 Sudoeste 12 Sudoeste 0 -- -- 64
2020-07-01 05:00:00 19.6 10 Sudoeste 12 Sudoeste 0 -- -- 58
2020-07-01 04:00:00 20.3 8 Sudoeste 14 Sudoeste 0 -- -- 54
2020-07-01 03:00:00 21.2 10 Sudoeste 15 Sudoeste 0 -- -- 49
2020-07-01 02:00:00 21.9 11 Sudoeste 15 Sudoeste 0 -- -- 48
2020-07-01 01:00:00 23 12 Sudoeste 18 Sudoeste 0 -- -- 46
2020-07-01 00:00:00 24.5 16 Sudoeste 21 Sudoeste 0 -- -- 43
2020-06-30 23:00:00 25.9 14 Sudoeste 23 Sudoeste 0 -- -- 39
2020-06-30 22:00:00 28.6 19 Sudoeste 30 Sudoeste 0 -- -- 33
2020-06-30 21:00:00 31.7 23 Sudoeste 33 Sudoeste 0 -- -- 28
2020-06-30 20:00:00 33.4 26 Sudoeste 39 Sudoeste 0 -- -- 27
2020-06-30 19:00:00 34.9 22 Sur 41 Sudoeste 0 -- -- 24
2020-06-30 18:00:00 36.4 26 Sudoeste 39 Sudoeste 0 -- -- 23
2020-06-30 17:00:00 36.2 25 Sudoeste 38 Sudoeste 0 -- -- 25
2020-06-30 16:00:00 35.9 13 Sudoeste 40 Sur 0 -- -- 27
2020-06-30 15:00:00 35.8 14 Sur 32 Sudoeste 0 -- -- 25
2020-06-30 14:00:00 35.5 14 Sudoeste 31 Sudoeste 0 -- -- 25
2020-06-30 13:00:00 34.4 14 Sur 28 Sur 0 -- -- 28
2020-06-30 12:00:00 33.3 8 Sur 17 Sur 0 -- -- 28
2020-06-30 11:00:00 31.3 3 Norte 9 Noroeste 0 -- -- 30
2020-06-30 10:00:00 28.9 3 Sudoeste 8 Sur 0 -- -- 37
2020-06-30 09:00:00 25.7 4 Sur 6 Sur 0 -- -- 45
2020-06-30 08:00:00 24.1 0 Calma 4 Nordeste 0 -- -- 48
2020-06-30 07:00:00 22.8 3 Nordeste 4 Nordeste 0 -- -- 52
2020-06-30 06:00:00 22.8 0 Calma 9 Sudeste 0 -- -- 51
2020-06-30 05:00:00 22.6 7 Sudeste 12 Sudeste 0 -- -- 53
2020-06-30 04:00:00 22.7 5 Sur 11 Sudoeste 0 -- -- 53
2020-06-30 03:00:00 23.4 5 Sudoeste 15 Norte 0 -- -- 50
2020-06-30 02:00:00 24 16 Norte 22 Norte 0 -- -- 48
2020-06-30 01:00:00 25.7 10 Oeste 15 Oeste 0 -- -- 47
2020-06-30 00:00:00 27.1 9 Sudoeste 13 Sudoeste 0 -- -- 45
2020-06-29 23:00:00 28.3 8 Sudoeste 31 Sudoeste 0 -- -- 41
2020-06-29 22:00:00 31 15 Sudoeste 22 Sudoeste 0 -- -- 36
2020-06-29 21:00:00 33.3 12 Sudoeste 21 Sudoeste 0 -- -- 28
2020-06-29 20:00:00 35.8 13 Sudoeste 34 Sudoeste 0 -- -- 25
2020-06-29 19:00:00 36.2 9 Sur 30 Sudoeste 0 -- -- 24
2020-06-29 18:00:00 37.3 16 Sudeste 33 Sur 0 -- -- 22
2020-06-29 17:00:00 36.8 17 Sur 35 Sur 0 -- -- 24
2020-06-29 16:00:00 37 12 Sur 44 Sudeste 0 -- -- 25
2020-06-29 15:00:00 36 15 Sudeste 30 Noroeste 0 -- -- 26
2020-06-29 14:00:00 35.3 8 Este 23 Oeste 0 -- -- 26
2020-06-29 13:00:00 33.9 6 Sudoeste 19 Oeste 0 -- -- 28
2020-06-29 12:00:00 31.7 6 Oeste 16 Noroeste 0 -- -- 34
2020-06-29 11:00:00 29.4 8 Nordeste 15 Nordeste 0 -- -- 41
2020-06-29 10:00:00 25.9 4 Norte 8 Norte 0 -- -- 52
2020-06-29 09:00:00 22.7 3 Noroeste 5 Noroeste 0 -- -- 62
2020-06-29 08:00:00 20.8 3 Sudoeste 6 Sudoeste 0 -- -- 68
2020-06-29 07:00:00 19.8 5 Sudoeste 7 Sudoeste 0 -- -- 71
2020-06-29 06:00:00 20.1 5 Sudoeste 8 Sudoeste 0 -- -- 69
2020-06-29 05:00:00 20.7 5 Sudoeste 8 Sudoeste 0 -- -- 66
2020-06-29 04:00:00 20.8 6 Sudoeste 9 Sudoeste 0 -- -- 64
2020-06-29 03:00:00 21.4 7 Sudoeste 14 Oeste 0 -- -- 60
2020-06-29 02:00:00 22.3 10 Oeste 14 Oeste 0 -- -- 57
2020-06-29 01:00:00 23.6 10 Noroeste 22 Noroeste 0 -- -- 51
2020-06-29 00:00:00 25.6 16 Noroeste 22 Noroeste 0 -- -- 40
2020-06-28 23:00:00 26.7 13 Norte 20 Norte 0 -- -- 34
2020-06-28 22:00:00 29 16 Norte 31 Noroeste 0 -- -- 31
2020-06-28 21:00:00 31.7 24 Noroeste 31 Noroeste 0 -- -- 30
2020-06-28 20:00:00 33.4 23 Noroeste 32 Noroeste 0 -- -- 29
2020-06-28 19:00:00 34.4 17 Noroeste 35 Noroeste 0 -- -- 28
2020-06-28 18:00:00 34.6 8 Oeste 28 Noroeste 0 -- -- 27
2020-06-28 17:00:00 34.2 7 Noroeste 24 Noroeste 0 -- -- 28
2020-06-28 16:00:00 33.8 16 Noroeste 26 Oeste 0 -- -- 29
2020-06-28 15:00:00 32.2 14 Oeste 24 Oeste 0 -- -- 32
2020-06-28 14:00:00 31.6 14 Oeste 22 Oeste 0 -- -- 32
2020-06-28 13:00:00 29.6 9 Noroeste 21 Sudoeste 0 -- -- 37
2020-06-28 12:00:00 28.5 9 Norte 19 Norte 0 -- -- 42
2020-06-28 11:00:00 25.6 8 Norte 14 Norte 0 -- -- 51
2020-06-28 10:00:00 22.8 5 Norte 9 Noroeste 0 -- -- 61
2020-06-28 09:00:00 20.2 5 Noroeste 9 Noroeste 0 -- -- 70
2020-06-28 08:00:00 18.4 3 Sudoeste 5 Sur 0 -- -- 76
2020-06-28 07:00:00 17.1 3 Sudoeste 6 Sudoeste 0 -- -- 79
2020-06-28 06:00:00 17.2 4 Sudoeste 8 Sudoeste 0 -- -- 77
2020-06-28 05:00:00 17.4 6 Sudoeste 9 Sudoeste 0 -- -- 75
2020-06-28 04:00:00 18.1 6 Sudoeste 10 Oeste 0 -- -- 71
2020-06-28 03:00:00 18.8 8 Oeste 10 Oeste 0 -- -- 67
2020-06-28 02:00:00 19.8 7 Noroeste 12 Oeste 0 -- -- 63
2020-06-28 01:00:00 20.8 10 Oeste 14 Oeste 0 -- -- 59
2020-06-28 00:00:00 22.2 9 Noroeste 27 Noroeste 0 -- -- 53
2020-06-27 23:00:00 24.2 17 Noroeste 25 Noroeste 0 -- -- 47
2020-06-27 22:00:00 26.3 20 Noroeste 33 Noroeste 0 -- -- 41
2020-06-27 21:00:00 29.1 18 Noroeste 30 Oeste 0 -- -- 34
2020-06-27 20:00:00 30.2 16 Noroeste 27 Noroeste 0 -- -- 33
2020-06-27 19:00:00 30.7 12 Noroeste 27 Noroeste 0 -- -- 33
2020-06-27 18:00:00 30.6 15 Oeste 30 Sudoeste 0 -- -- 32
2020-06-27 17:00:00 30.3 9 Noroeste 28 Oeste 0 -- -- 34
2020-06-27 16:00:00 29.4 15 Noroeste 27 Norte 0 -- -- 36
2020-06-27 15:00:00 28.7 15 Sudoeste 28 Oeste 0 -- -- 36
2020-06-27 14:00:00 26.8 10 Oeste 25 Noroeste 0 -- -- 41
2020-06-27 13:00:00 25.3 10 Oeste 18 Oeste 0 -- -- 47
2020-06-27 12:00:00 22.9 8 Noroeste 17 Noroeste 0 -- -- 54
2020-06-27 11:00:00 20.6 5 Noroeste 16 Noroeste 0 -- -- 62
2020-06-27 10:00:00 18.6 13 Noroeste 18 Oeste 0 -- -- 69
2020-06-27 09:00:00 16.5 11 Oeste 17 Oeste 0 -- -- 77
2020-06-27 08:00:00 14.5 10 Oeste 15 Oeste 0 -- -- 80
2020-06-27 07:00:00 13.7 9 Sudoeste 13 Sudoeste 0 -- -- 79
2020-06-27 06:00:00 14.2 7 Sudoeste 18 Oeste 0 -- -- 77
2020-06-27 05:00:00 14.8 11 Oeste 17 Oeste 0 -- -- 73
2020-06-27 04:00:00 15.3 12 Oeste 18 Oeste 0 -- -- 66
2020-06-27 03:00:00 15.9 14 Oeste 18 Oeste 0 -- -- 63
2020-06-27 02:00:00 17.2 9 Oeste 19 Noroeste 0 -- -- 57
2020-06-27 01:00:00 18.4 10 Noroeste 15 Noroeste 0 -- -- 49
2020-06-27 00:00:00 19.8 10 Noroeste 22 Noroeste 0 -- -- 42
2020-06-26 23:00:00 21.1 15 Noroeste 23 Oeste 0 -- -- 38
2020-06-26 22:00:00 23.2 18 Oeste 28 Oeste 0 -- -- 33
2020-06-26 21:00:00 25 21 Oeste 31 Oeste 0 -- -- 33
2020-06-26 20:00:00 26.2 22 Noroeste 34 Oeste 0 -- -- 28
2020-06-26 19:00:00 27.8 23 Oeste 36 Oeste 0 -- -- 28
2020-06-26 18:00:00 28.3 21 Oeste 39 Oeste 0 -- -- 27
2020-06-26 17:00:00 27.7 21 Oeste 40 Sudoeste 0 -- -- 27
2020-06-26 16:00:00 28.5 25 Oeste 39 Oeste 0 -- -- 27
2020-06-26 15:00:00 28.2 23 Oeste 51 Sudoeste 0 -- -- 27
2020-06-26 14:00:00 27.1 20 Oeste 33 Oeste 0 -- -- 32
2020-06-26 13:00:00 25.6 14 Oeste 29 Oeste 0 -- -- 35
2020-06-26 12:00:00 22.7 12 Oeste 24 Oeste 0 -- -- 42
2020-06-26 11:00:00 20.2 12 Oeste 21 Oeste 0 -- -- 55
2020-06-26 10:00:00 17.6 10 Oeste 19 Oeste 0 -- -- 67
2020-06-26 09:00:00 15.3 8 Sudoeste 14 Oeste 0 -- -- 79
2020-06-26 08:00:00 13.9 8 Oeste 12 Oeste 0 -- -- 80
2020-06-26 07:00:00 14.9 4 Sudoeste 5 Sudoeste 0 -- -- 80
2020-06-26 06:00:00 15.3 4 Oeste 8 Sudoeste 0 -- -- 76
2020-06-26 05:00:00 15.9 4 Sudoeste 11 Sudoeste 0 -- -- 71
2020-06-26 04:00:00 16.3 7 Sudoeste 17 Sudoeste 0 -- -- 66
2020-06-26 03:00:00 17.3 11 Sudoeste 16 Oeste 0 -- -- 63
2020-06-26 02:00:00 18.7 12 Oeste 17 Oeste 0 -- -- 57
2020-06-26 01:00:00 20.4 11 Sudoeste 17 Sudoeste 0 -- -- 61
2020-06-26 00:00:00 22.3 16 Sudoeste 23 Sudoeste 0 -- -- 63
2020-06-25 23:00:00 23.7 12 Sudoeste 21 Sudoeste 0 -- -- 54
2020-06-25 22:00:00 26 16 Sudoeste 27 Sudoeste 0 -- -- 48
2020-06-25 21:00:00 28.6 22 Sudoeste 32 Sudoeste 0 -- -- 40
2020-06-25 20:00:00 29.6 19 Sudoeste 31 Sudoeste 0 -- -- 38
2020-06-25 19:00:00 31.6 20 Sudoeste 34 Sudoeste 0 -- -- 32
2020-06-25 18:00:00 31.4 14 Sur 32 Sudoeste 0 -- -- 31
2020-06-25 17:00:00 31.7 17 Sur 35 Sudoeste 0 -- -- 31
2020-06-25 16:00:00 31.4 18 Sudoeste 32 Sudoeste 0 -- -- 32
2020-06-25 15:00:00 30.5 20 Sudoeste 36 Sur 0 -- -- 35
2020-06-25 14:00:00 29.8 14 Sur 33 Sur 0 -- -- 33
2020-06-25 13:00:00 29.1 17 Sur 33 Sudoeste 0 -- -- 29
2020-06-25 12:00:00 28 17 Sudoeste 27 Sudoeste 0 -- -- 31
2020-06-25 11:00:00 25.4 4 Noroeste 15 Oeste 0 -- -- 40
2020-06-25 10:00:00 23.3 6 Oeste 13 Oeste 0 -- -- 42
2020-06-25 09:00:00 20.9 3 Noroeste 6 Oeste 0 -- -- 51
2020-06-25 08:00:00 19.2 0 Calma 5 Sudoeste 0 -- -- 55
2020-06-25 07:00:00 18.2 2 Sudoeste 8 Noroeste 0 -- -- 58
2020-06-25 06:00:00 18.5 7 Oeste 9 Oeste 0 -- -- 58
2020-06-25 05:00:00 19.5 3 Oeste 9 Oeste 0 -- -- 56
2020-06-25 04:00:00 19.7 9 Oeste 15 Sudoeste 0 -- -- 58
2020-06-25 03:00:00 20.3 12 Sudoeste 16 Sudoeste 0 -- -- 58
2020-06-25 02:00:00 21.4 10 Sudoeste 18 Oeste 0 -- -- 56
2020-06-25 01:00:00 22.4 11 Oeste 18 Oeste 0 -- -- 55
2020-06-25 00:00:00 23.9 14 Oeste 19 Oeste 0 -- -- 51
2020-06-24 23:00:00 26.2 14 Oeste 19 Oeste 0 -- -- 46
2020-06-24 22:00:00 28.7 12 Oeste 16 Sudoeste 0 -- -- 33
2020-06-24 21:00:00 32 9 Sur 26 Sur 0 -- -- 27
2020-06-24 20:00:00 33.2 19 Sur 32 Sudoeste 0 -- -- 25
2020-06-24 19:00:00 34.4 19 Sur 35 Sur 0 -- -- 23
2020-06-24 18:00:00 35.3 16 Sudoeste 37 Sur 0 -- -- 23
2020-06-24 17:00:00 34.9 21 Sur 40 Sur 0 -- -- 23
2020-06-24 16:00:00 34.9 20 Sur 40 Sur 0 -- -- 22
2020-06-24 15:00:00 34.8 23 Sur 42 Sur 0 -- -- 22
2020-06-24 14:00:00 33.9 15 Sur 33 Sur 0 -- -- 22
2020-06-24 13:00:00 32.5 13 Sur 28 Sur 0 -- -- 23
2020-06-24 12:00:00 30.5 5 Nordeste 15 Norte 0 -- -- 31
2020-06-24 11:00:00 27.3 4 Noroeste 14 Oeste 0 -- -- 38
2020-06-24 10:00:00 24.5 9 Oeste 15 Oeste 0 -- -- 44
2020-06-24 09:00:00 22.1 10 Oeste 14 Oeste 0 -- -- 50
2020-06-24 08:00:00 19.7 8 Sudoeste 10 Oeste 0 -- -- 56
2020-06-24 07:00:00 18.8 9 Sudoeste 15 Oeste 0 -- -- 57
2020-06-24 06:00:00 19.5 12 Sudoeste 15 Sudoeste 0 -- -- 55
2020-06-24 05:00:00 20 13 Sudoeste 16 Oeste 0 -- -- 54
2020-06-24 04:00:00 21.2 16 Oeste 19 Oeste 0 -- -- 51
2020-06-24 03:00:00 22 15 Oeste 24 Oeste 0 -- -- 49
2020-06-24 02:00:00 22.6 17 Oeste 23 Sudoeste 0 -- -- 48
2020-06-24 01:00:00 23.9 16 Sudoeste 25 Sudoeste 0 -- -- 46
2020-06-24 00:00:00 25.4 18 Sudoeste 24 Sudoeste 0 -- -- 43
2020-06-23 23:00:00 26.6 14 Oeste 21 Oeste 0 -- -- 36
2020-06-23 22:00:00 28.7 12 Sudoeste 25 Oeste 0 -- -- 31
2020-06-23 21:00:00 32.2 22 Oeste 33 Oeste 0 -- -- 28
2020-06-23 20:00:00 35.1 15 Sur 30 Sur 0 -- -- 21
2020-06-23 19:00:00 35.6 23 Sur 36 Sudoeste 0 -- -- 20
2020-06-23 18:00:00 36.3 12 Sur 30 Sudoeste 0 -- -- 19
2020-06-23 17:00:00 36.9 7 Oeste 27 Nordeste 0 -- -- 19
2020-06-23 16:00:00 37.1 8 Sudoeste 27 Sudoeste 0 -- -- 18
2020-06-23 15:00:00 36 4 Sur 23 Sudeste 0 -- -- 19
2020-06-23 14:00:00 35.3 6 Nordeste 26 Sudeste 0 -- -- 20
2020-06-23 13:00:00 33.6 14 Sur 28 Sur 0 -- -- 22
2020-06-23 12:00:00 32.5 20 Sudeste 31 Sudeste 0 -- -- 23
2020-06-23 11:00:00 31.6 18 Sudeste 31 Este 0 -- -- 24
2020-06-23 10:00:00 29.6 24 Sudeste 33 Este 0 -- -- 28
2020-06-23 09:00:00 26.1 14 Este 24 Este 0 -- -- 32
2020-06-23 08:00:00 24.1 21 Este 27 Este 0 -- -- 35
2020-06-23 07:00:00 22.5 22 Sudeste 30 Sudeste 0 -- -- 37
2020-06-23 06:00:00 23 24 Sudeste 26 Sudeste 0 -- -- 36
2020-06-23 05:00:00 24.2 15 Este 23 Este 0 -- -- 34
2020-06-23 04:00:00 24.4 9 Sudeste 16 Sudeste 0 -- -- 33
2020-06-23 03:00:00 25.7 11 Sudeste 16 Sudeste 0 -- -- 30
2020-06-23 02:00:00 26.7 8 Este 12 Este 0 -- -- 28
2020-06-23 01:00:00 26.3 5 Sudeste 25 Sudeste 0 -- -- 27
2020-06-23 00:00:00 28.3 22 Sudeste 28 Sudeste 0 -- -- 24
2020-06-22 23:00:00 29.1 21 Sudeste 24 Sudeste 0 -- -- 23
2020-06-22 22:00:00 30.6 15 Sudeste 18 Sudeste 0 -- -- 21
2020-06-22 21:00:00 34.4 11 Sudeste 21 Sur 0 -- -- 16
2020-06-22 20:00:00 35.8 8 Sudeste 27 Sur 0 -- -- 15
2020-06-22 19:00:00 36.3 15 Sudeste 28 Sudeste 0 -- -- 15
2020-06-22 18:00:00 36.4 16 Este 32 Sudeste 0 -- -- 15
2020-06-22 17:00:00 36.9 11 Este 29 Sudeste 0 -- -- 16
2020-06-22 16:00:00 36.8 11 Sudeste 36 Sudeste 0 -- -- 15
2020-06-22 15:00:00 36.4 9 Sudeste 31 Sudeste 0 -- -- 17
2020-06-22 14:00:00 35.4 20 Este 30 Este 0 -- -- 18
2020-06-22 13:00:00 34.7 15 Este 28 Sudeste 0 -- -- 18
2020-06-22 12:00:00 33.2 13 Este 26 Este 0 -- -- 21
2020-06-22 11:00:00 30.8 10 Este 18 Este 0 -- -- 26
2020-06-22 10:00:00 27.2 6 Nordeste 9 Este 0 -- -- 37
2020-06-22 09:00:00 23.6 3 Norte 5 Nordeste 0 -- -- 49
2020-06-22 08:00:00 21.2 0 Calma 6 Sudeste 0 -- -- 54
2020-06-22 07:00:00 19.3 3 Sudeste 5 Sudeste 0 -- -- 60
2020-06-22 06:00:00 19.8 0 Calma 5 Noroeste 0 -- -- 59
2020-06-22 05:00:00 20.3 4 Noroeste 8 Noroeste 0 -- -- 56
2020-06-22 04:00:00 20.5 4 Sudoeste 8 Sudoeste 0 -- -- 50
2020-06-22 03:00:00 21.1 6 Sudoeste 8 Sudoeste 0 -- -- 44
2020-06-22 02:00:00 21.7 3 Sudoeste 18 Noroeste 0 -- -- 38
2020-06-22 01:00:00 22.4 15 Noroeste 21 Noroeste 0 -- -- 40
2020-06-22 00:00:00 24.2 13 Noroeste 22 Noroeste 0 -- -- 27
2020-06-21 23:00:00 25.2 14 Norte 22 Norte 0 -- -- 26
2020-06-21 22:00:00 27.4 15 Noroeste 25 Noroeste 0 -- -- 23
2020-06-21 21:00:00 30.9 17 Norte 26 Noroeste 0 -- -- 20
2020-06-21 20:00:00 32.2 14 Noroeste 29 Oeste 0 -- -- 19
2020-06-21 19:00:00 32.9 13 Oeste 27 Noroeste 0 -- -- 17
2020-06-21 18:00:00 33.3 12 Norte 31 Noroeste 0 -- -- 17
2020-06-21 17:00:00 32.7 14 Oeste 27 Noroeste 0 -- -- 17
2020-06-21 16:00:00 32.5 18 Noroeste 27 Noroeste 0 -- -- 17
2020-06-21 15:00:00 31.4 13 Noroeste 29 Noroeste 0 -- -- 17
2020-06-21 14:00:00 30.6 14 Noroeste 26 Norte 0 -- -- 20
2020-06-21 13:00:00 28.8 8 Noroeste 23 Noroeste 0 -- -- 18
2020-06-21 12:00:00 26.8 11 Norte 20 Noroeste 0 -- -- 31
2020-06-21 11:00:00 23.6 4 Noroeste 9 Noroeste 0 -- -- 34
2020-06-21 10:00:00 20.1 5 Noroeste 9 Noroeste 0 -- -- 51
2020-06-21 09:00:00 17 9 Noroeste 12 Noroeste 0 -- -- 62
2020-06-21 08:00:00 15.1 6 Oeste 10 Oeste 0 -- -- 63
2020-06-21 07:00:00 15.3 5 Sudoeste 9 Sudoeste 0 -- -- 61
2020-06-21 06:00:00 15 8 Sudoeste 12 Oeste 0 -- -- 63
2020-06-21 05:00:00 16.1 9 Sudoeste 10 Sudoeste 0 -- -- 61
2020-06-21 04:00:00 16.5 7 Oeste 10 Oeste 0 -- -- 61
2020-06-21 03:00:00 17.5 8 Sudoeste 13 Oeste 0 -- -- 59
2020-06-21 02:00:00 18.7 10 Oeste 14 Oeste 0 -- -- 55
2020-06-21 01:00:00 20 9 Oeste 22 Noroeste 0 -- -- 48
2020-06-21 00:00:00 21.9 14 Noroeste 23 Noroeste 0 -- -- 40
2020-06-20 23:00:00 24 17 Noroeste 22 Noroeste 0 -- -- 34
2020-06-20 22:00:00 26.5 15 Noroeste 26 Oeste 0 -- -- 30
2020-06-20 21:00:00 29.6 19 Oeste 28 Oeste 0 -- -- 23
2020-06-20 20:00:00 31.2 18 Oeste 35 Oeste 0 -- -- 19
2020-06-20 19:00:00 32 16 Oeste 30 Noroeste 0 -- -- 20
2020-06-20 18:00:00 32.3 21 Oeste 34 Oeste 0 -- -- 21
2020-06-20 17:00:00 32.8 14 Oeste 33 Oeste 0 -- -- 21
2020-06-20 16:00:00 31.8 14 Oeste 35 Sudoeste 0 -- -- 21
2020-06-20 15:00:00 31.5 12 Sudoeste 31 Sudoeste 0 -- -- 20
2020-06-20 14:00:00 31.2 12 Sudoeste 24 Sudoeste 0 -- -- 21
2020-06-20 13:00:00 29.8 16 Sudoeste 24 Sudoeste 0 -- -- 23
2020-06-20 12:00:00 28.7 8 Sudeste 21 Sur 0 -- -- 26
2020-06-20 11:00:00 26.5 6 Sudoeste 12 Sudoeste 0 -- -- 27
2020-06-20 10:00:00 24.4 2 Sudoeste 9 Sur 0 -- -- 31
2020-06-20 09:00:00 21.6 4 Sudeste 5 Sudeste 0 -- -- 37
2020-06-20 08:00:00 17.9 6 Sudeste 8 Sudeste 0 -- -- 47
2020-06-20 07:00:00 15.7 4 Sudeste 5 Sudeste 0 -- -- 53
2020-06-20 06:00:00 16 3 Sur 6 Sudoeste 0 -- -- 52
2020-06-20 05:00:00 16.1 5 Sudoeste 6 Sudoeste 0 -- -- 50
2020-06-20 04:00:00 16.2 5 Sur 6 Sur 0 -- -- 47
2020-06-20 03:00:00 17.1 3 Sudoeste 7 Sudoeste 0 -- -- 42
2020-06-20 02:00:00 18.7 5 Sudoeste 6 Sudoeste 0 -- -- 39
2020-06-20 01:00:00 19.9 4 Sudoeste 6 Sudoeste 0 -- -- 37
2020-06-20 00:00:00 20.6 5 Sudoeste 10 Oeste 0 -- -- 35
2020-06-19 23:00:00 21.4 8 Noroeste 16 Oeste 0 -- -- 33
2020-06-19 22:00:00 23.1 14 Oeste 24 Oeste 0 -- -- 31
2020-06-19 21:00:00 26.2 19 Oeste 30 Oeste 0 -- -- 28
2020-06-19 20:00:00 27.4 21 Oeste 33 Oeste 0 -- -- 27
2020-06-19 19:00:00 28.4 23 Noroeste 39 Oeste 0 -- -- 26
2020-06-19 18:00:00 28.7 20 Oeste 42 Oeste 0 -- -- 27
2020-06-19 17:00:00 29.1 26 Oeste 40 Oeste 0 -- -- 27
2020-06-19 16:00:00 28.7 18 Oeste 35 Oeste 0 -- -- 28
2020-06-19 15:00:00 28.6 16 Oeste 36 Sudoeste 0 -- -- 26
2020-06-19 14:00:00 27.5 11 Oeste 32 Sudoeste 0 -- -- 27
2020-06-19 13:00:00 25.9 17 Oeste 28 Oeste 0 -- -- 29
2020-06-19 12:00:00 24.5 14 Sudoeste 23 Sudoeste 0 -- -- 31
2020-06-19 11:00:00 21.6 7 Sudoeste 13 Sudoeste 0 -- -- 34
2020-06-19 10:00:00 17 6 Sudoeste 13 Oeste 0 -- -- 55
2020-06-19 09:00:00 13.5 10 Oeste 13 Oeste 0 -- -- 72
2020-06-19 08:00:00 11.1 9 Oeste 14 Sudoeste 0 -- -- 80
2020-06-19 07:00:00 10.2 13 Sudoeste 14 Sudoeste 0 -- -- 80
2020-06-19 06:00:00 10.8 14 Oeste 17 Oeste 0 -- -- 76
2020-06-19 05:00:00 11.8 13 Sudoeste 20 Oeste 0 -- -- 71
2020-06-19 04:00:00 13 14 Oeste 18 Oeste 0 -- -- 67
2020-06-19 03:00:00 13.9 12 Sudoeste 18 Oeste 0 -- -- 63
2020-06-19 02:00:00 15 15 Oeste 21 Oeste 0 -- -- 60
2020-06-19 01:00:00 16.5 13 Oeste 22 Oeste 0 -- -- 56
2020-06-19 00:00:00 18.5 10 Noroeste 17 Noroeste 0 -- -- 47
2020-06-18 23:00:00 20.5 12 Noroeste 26 Oeste 0 -- -- 43
2020-06-18 22:00:00 22.6 18 Oeste 27 Oeste 0 -- -- 36
2020-06-18 21:00:00 25.5 18 Oeste 29 Oeste 0 -- -- 28
2020-06-18 20:00:00 27 20 Oeste 31 Oeste 0 -- -- 25
2020-06-18 19:00:00 27.7 19 Oeste 32 Oeste 0 -- -- 24
2020-06-18 18:00:00 28.1 15 Oeste 33 Oeste 0 -- -- 23
2020-06-18 17:00:00 27.8 14 Oeste 33 Oeste 0 -- -- 24
2020-06-18 16:00:00 27.8 17 Oeste 31 Oeste 0 -- -- 25
2020-06-18 15:00:00 26.6 15 Oeste 30 Noroeste 0 -- -- 26
2020-06-18 14:00:00 26.3 12 Sudoeste 26 Oeste 0 -- -- 27
2020-06-18 13:00:00 24.4 12 Sudoeste 26 Oeste 0 -- -- 30
2020-06-18 12:00:00 22.1 9 Oeste 20 Noroeste 0 -- -- 32
2020-06-18 11:00:00 19.8 8 Noroeste 17 Oeste 0 -- -- 40
2020-06-18 10:00:00 17.8 8 Oeste 13 Sudoeste 0 -- -- 51
2020-06-18 09:00:00 14.3 6 Sur 10 Sudoeste 0 -- -- 70
2020-06-18 08:00:00 12.1 5 Sur 7 Sudoeste 0 -- -- 75
2020-06-18 07:00:00 11.2 5 Sudoeste 9 Sudoeste 0 -- -- 78
2020-06-18 06:00:00 11.2 7 Sur 9 Sur 0 -- -- 76
2020-06-18 05:00:00 11.8 6 Sudoeste 12 Sudoeste 0 -- -- 74
2020-06-18 04:00:00 12.6 7 Sudoeste 14 Oeste 0 -- -- 69
2020-06-18 03:00:00 13.7 8 Oeste 14 Oeste 0 -- -- 64
2020-06-18 02:00:00 15.3 4 Oeste 10 Noroeste 0 -- -- 60
2020-06-18 01:00:00 16.4 3 Oeste 8 Sudoeste 0 -- -- 55
2020-06-18 00:00:00 17.5 5 Sudoeste 14 Oeste 0 -- -- 51
2020-06-17 23:00:00 18.3 7 Oeste 17 Oeste 0 -- -- 48
2020-06-17 22:00:00 20.2 14 Oeste 24 Noroeste 0 -- -- 44
2020-06-17 21:00:00 23 17 Oeste 32 Oeste 0 -- -- 37
2020-06-17 20:00:00 24.1 22 Oeste 33 Oeste 0 -- -- 35
2020-06-17 19:00:00 25.2 21 Oeste 37 Oeste 0 -- -- 30
2020-06-17 18:00:00 25.2 17 Oeste 36 Oeste 0 -- -- 27
2020-06-17 17:00:00 25 24 Oeste 39 Oeste 0 -- -- 29
2020-06-17 16:00:00 24.5 19 Oeste 41 Sudoeste 0 -- -- 31
2020-06-17 15:00:00 23.8 21 Oeste -- -- -- -- -- 35
2020-06-17 14:00:00 22.4 21 Oeste -- -- -- -- -- 40
2020-06-17 13:00:00 21.2 21 Oeste 38 Sudoeste 0 -- -- 42
2020-06-17 12:00:00 19.6 19 Oeste 37 Oeste 0 -- -- 46
2020-06-17 11:00:00 17.7 24 Oeste 32 Oeste 0 -- -- 53
2020-06-17 10:00:00 15.8 19 Oeste 27 Oeste 0 -- -- 58
2020-06-17 09:00:00 13.7 17 Oeste 22 Oeste 0 -- -- 69
2020-06-17 08:00:00 10.9 9 Sudoeste 13 Oeste 0 -- -- 82
2020-06-17 07:00:00 10.3 7 Sudoeste 13 Oeste 0 -- -- 85
2020-06-17 06:00:00 11 10 Oeste 14 Oeste 0 -- -- 81
2020-06-17 05:00:00 11.7 5 Oeste 20 Oeste 0 -- -- 81
2020-06-17 04:00:00 12.8 12 Oeste 23 Oeste 0 -- -- 80
2020-06-17 03:00:00 13.9 8 Noroeste 23 Oeste 0 -- -- 79
2020-06-17 02:00:00 15 12 Oeste 19 Noroeste 0 -- -- 76
2020-06-17 01:00:00 16.5 16 Noroeste 30 Noroeste 0 -- -- 68
2020-06-17 00:00:00 18.1 21 Noroeste 33 Noroeste 0 -- -- 63
2020-06-16 23:00:00 19.1 15 Noroeste 27 Oeste 0 -- -- 56
2020-06-16 22:00:00 21 19 Oeste 36 Noroeste 0 -- -- 52
2020-06-16 21:00:00 23.1 26 Noroeste 38 Oeste 0 -- -- 48
2020-06-16 20:00:00 23.2 29 Oeste 42 Oeste 0 -- -- 50
2020-06-16 19:00:00 24.8 28 Oeste 45 Oeste 0 -- -- 46
2020-06-16 18:00:00 24.2 30 Oeste 44 Oeste 0 -- -- 47
2020-06-16 17:00:00 23.5 29 Oeste 42 Oeste 0 -- -- 48
2020-06-16 16:00:00 24 30 Oeste 43 Oeste 0 -- -- 47
2020-06-16 15:00:00 23.6 24 Oeste 47 Oeste 0 -- -- 47
2020-06-16 14:00:00 22.8 30 Oeste 46 Oeste 0 -- -- 50
2020-06-16 13:00:00 23 26 Oeste 41 Oeste 0 -- -- 49
2020-06-16 12:00:00 21.4 23 Noroeste 37 Oeste 0 -- -- 47
2020-06-16 11:00:00 19.8 23 Oeste 32 Noroeste 0 -- -- 50
2020-06-16 10:00:00 17.2 17 Oeste 26 Oeste 0 -- -- 59
2020-06-16 09:00:00 14.3 14 Oeste 19 Oeste 0 -- -- 72
2020-06-16 08:00:00 11.9 10 Oeste 14 Oeste 0 -- -- 83
2020-06-16 07:00:00 10.9 6 Oeste 19 Oeste 0 -- -- 85
2020-06-16 06:00:00 11.8 9 Oeste 22 Oeste 0 -- -- 82
2020-06-16 05:00:00 12.8 11 Oeste 15 Oeste 0 -- -- 79
2020-06-16 04:00:00 14.6 13 Oeste 26 Noroeste 0 -- -- 72
2020-06-16 03:00:00 15.9 17 Oeste 21 Oeste 0 -- -- 64
2020-06-16 02:00:00 15.7 11 Noroeste 15 Noroeste 0 -- -- 60
2020-06-16 01:00:00 16.2 11 Oeste 15 Oeste 0 -- -- 58
2020-06-16 00:00:00 17.3 12 Noroeste 17 Oeste 0 -- -- 54
2020-06-15 23:00:00 18.4 11 Oeste 22 Oeste 0 -- -- 50
2020-06-15 22:00:00 20.1 19 Oeste 31 Noroeste 0 -- -- 47
2020-06-15 21:00:00 23 21 Oeste 33 Noroeste 0 -- -- 39
2020-06-15 20:00:00 23.9 24 Oeste 34 Oeste 0 -- -- 36
2020-06-15 19:00:00 25.4 21 Oeste 33 Oeste 0 -- -- 31
2020-06-15 18:00:00 25.7 19 Oeste 39 Oeste 0 -- -- 32
2020-06-15 17:00:00 25.5 23 Oeste 37 Oeste 0 -- -- 31
2020-06-15 16:00:00 25.4 17 Oeste 36 Noroeste 0 -- -- 31
2020-06-15 15:00:00 24.9 17 Sudoeste 39 Oeste 0 -- -- 32
2020-06-15 14:00:00 24 18 Oeste 40 Oeste 0 -- -- 33
2020-06-15 13:00:00 22.6 16 Oeste 29 Oeste 0 -- -- 39
2020-06-15 12:00:00 21 9 Sudoeste 26 Sudoeste 0 -- -- 42
2020-06-15 11:00:00 18.7 5 Oeste 14 Noroeste 0 -- -- 50
2020-06-15 10:00:00 17.2 5 Noroeste 10 Oeste 0 -- -- 54
2020-06-15 09:00:00 14.4 3 Sur 7 Sur 0 -- -- 68
2020-06-15 08:00:00 11.8 4 Sur 7 Sudoeste 0 -- -- 80
2020-06-15 07:00:00 10.7 5 Sur 8 Sudoeste 0 -- -- 83
2020-06-15 06:00:00 10.9 6 Sudoeste 8 Sudoeste 0 -- -- 82
2020-06-15 05:00:00 11.5 5 Sudoeste 13 Oeste 0 -- -- 79
2020-06-15 04:00:00 11.9 12 Oeste 15 Oeste 0 -- -- 77
2020-06-15 03:00:00 12.4 9 Oeste 12 Oeste 0 -- -- 72
2020-06-15 02:00:00 13.9 6 Oeste 11 Noroeste 0 -- -- 59
2020-06-15 01:00:00 15.2 9 Oeste 16 Oeste 0 -- -- 54
2020-06-15 00:00:00 16 9 Noroeste 18 Noroeste 0 -- -- 50
2020-06-14 23:00:00 17.7 8 Noroeste 22 Noroeste 0 -- -- 45
2020-06-14 22:00:00 20.3 15 Noroeste 28 Oeste 0 -- -- 39
2020-06-14 21:00:00 22.8 19 Oeste 29 Oeste 0 -- -- 33
2020-06-14 20:00:00 24.1 22 Oeste 35 Oeste 0 -- -- 30
2020-06-14 19:00:00 24.8 26 Oeste 38 Oeste 0 -- -- 30
2020-06-14 18:00:00 25.5 21 Oeste 39 Oeste 0 -- -- 30
2020-06-14 17:00:00 25.5 19 Oeste 37 Oeste 0 -- -- 31
2020-06-14 16:00:00 25.3 18 Oeste 38 Oeste 0 -- -- 31
2020-06-14 15:00:00 24.7 18 Oeste 33 Sudoeste 0 -- -- 33
2020-06-14 14:00:00 23.8 14 Noroeste 31 Oeste 0 -- -- 36
2020-06-14 13:00:00 21.9 8 Norte 25 Oeste 0 -- -- 41
2020-06-14 12:00:00 20.5 12 Noroeste 24 Oeste 0 -- -- 45
2020-06-14 11:00:00 19.1 6 Oeste 13 Oeste 0 -- -- 50
2020-06-14 10:00:00 16.8 5 Noroeste 10 Oeste 0 -- -- 59
2020-06-14 09:00:00 14.1 8 Oeste 10 Oeste 0 -- -- 72
2020-06-14 08:00:00 12 4 Sudoeste 6 Sudoeste 0 -- -- 77
2020-06-14 07:00:00 11 4 Sudoeste 7 Sudoeste 0 -- -- 79
2020-06-14 06:00:00 11.3 4 Sudoeste 7 Oeste 0 -- -- 77
2020-06-14 05:00:00 11.7 4 Sudoeste 6 Sudoeste 0 -- -- 72
2020-06-14 04:00:00 12.5 3 Oeste 9 Noroeste 0 -- -- 66
2020-06-14 03:00:00 12.9 5 Noroeste 12 Oeste 0 -- -- 63
2020-06-14 02:00:00 13.5 7 Oeste 11 Noroeste 0 -- -- 58
2020-06-14 01:00:00 14.7 5 Oeste 9 Oeste 0 -- -- 53
2020-06-14 00:00:00 15.5 2 Sudoeste 16 Noroeste 0 -- -- 49
2020-06-13 23:00:00 16.4 12 Noroeste 17 Noroeste 0 -- -- 46
2020-06-13 22:00:00 18.3 14 Noroeste 21 Noroeste 0 -- -- 41
2020-06-13 21:00:00 20.4 19 Oeste 31 Oeste 0 -- -- 37
2020-06-13 20:00:00 21.8 18 Noroeste 37 Oeste 0 -- -- 36
2020-06-13 19:00:00 23 21 Oeste 38 Oeste 0 -- -- 33
2020-06-13 18:00:00 22.3 18 Oeste 35 Oeste 0 -- -- 35
2020-06-13 17:00:00 23.6 22 Oeste 37 Oeste 0 -- -- 33
2020-06-13 16:00:00 22.4 18 Oeste 35 Sudoeste 0 -- -- 35
2020-06-13 15:00:00 21.5 11 Sudoeste 32 Oeste 0 -- -- 37
2020-06-13 14:00:00 20.5 14 Oeste 43 Oeste 0.2 -- -- 40
2020-06-13 13:00:00 19.3 10 Oeste 23 Sudoeste 0 -- -- 42
2020-06-13 12:00:00 17 5 Noroeste 18 Noroeste 0 -- -- 56
2020-06-13 11:00:00 14.5 8 Noroeste 17 Noroeste 0 -- -- 72
2020-06-13 10:00:00 11.9 4 Noroeste 10 Noroeste 0 -- -- 93
2020-06-13 09:00:00 10.7 6 Oeste 10 Oeste 0 -- -- 97
2020-06-13 08:00:00 9.4 5 Sudoeste 7 Sur 0 -- -- 96
2020-06-13 07:00:00 8.5 5 Sur 9 Oeste 0 -- -- 96
2020-06-13 06:00:00 8.5 9 Oeste 16 Oeste 0 -- -- 95
2020-06-13 05:00:00 9.2 13 Oeste 17 Oeste 0 -- -- 94
2020-06-13 04:00:00 9.6 14 Oeste 19 Oeste -- -- -- 93
2020-06-13 03:00:00 10.3 14 Oeste 19 Oeste 0 -- -- 92
2020-06-13 02:00:00 11.5 11 Oeste 13 Oeste 0 -- -- 91
2020-06-13 01:00:00 12.1 8 Oeste 24 Oeste 0 -- -- 90
2020-06-13 00:00:00 12.2 13 Oeste 36 Oeste 0.8 -- -- 91
2020-06-12 23:00:00 14 26 Oeste 31 Oeste 0 -- -- 74
2020-06-12 22:00:00 14.1 21 Oeste 44 Oeste 0 -- -- 70
2020-06-12 21:00:00 16.9 26 Oeste 38 Oeste 0 -- -- 55
2020-06-12 20:00:00 18.8 22 Oeste 41 Oeste 0 -- -- 44
2020-06-12 19:00:00 20.3 27 Oeste 39 Oeste 0 -- -- 42
2020-06-12 18:00:00 19.5 21 Oeste 32 Oeste 0 -- -- 44
2020-06-12 17:00:00 19.5 18 Oeste 35 Oeste 0 -- -- 43
2020-06-12 16:00:00 19.6 24 Oeste 37 Oeste 0 -- -- 41
2020-06-12 15:00:00 18.2 21 Oeste 32 Oeste 0 -- -- 45
2020-06-12 14:00:00 17.9 17 Oeste 31 Oeste 0 -- -- 45
2020-06-12 13:00:00 17.2 19 Oeste 33 Noroeste 0 -- -- 47
2020-06-12 12:00:00 16.4 16 Noroeste 37 Oeste 0 -- -- 49
2020-06-12 11:00:00 15.7 21 Oeste 35 Oeste 0 -- -- 51
2020-06-12 10:00:00 13.9 22 Oeste 31 Oeste 0 -- -- 59
2020-06-12 09:00:00 12.1 18 Oeste 28 Oeste 0 -- -- 70
2020-06-12 08:00:00 9.7 14 Noroeste 19 Oeste 0 -- -- 75
2020-06-12 07:00:00 9.2 16 Oeste 27 Oeste 0 -- -- 74
2020-06-12 06:00:00 10.4 21 Oeste 34 Oeste 0 -- -- 70
2020-06-12 05:00:00 11.7 20 Oeste 36 Noroeste 0 -- -- 69
2020-06-12 04:00:00 12.3 27 Noroeste 42 Noroeste 0 -- -- 68
2020-06-12 03:00:00 12.9 34 Oeste 40 Oeste 0 -- -- 65
2020-06-12 02:00:00 13.5 19 Oeste 30 Oeste 0 -- -- 75
2020-06-12 01:00:00 13.1 19 Oeste 37 Oeste 0 -- -- 77
2020-06-12 00:00:00 14.4 24 Oeste 35 Oeste 0 -- -- 77
2020-06-11 23:00:00 15 24 Oeste 49 Oeste 0 -- -- 77
2020-06-11 22:00:00 16.8 29 Oeste 46 Sudoeste 0 -- -- 71
2020-06-11 21:00:00 17.8 31 Oeste 50 Sudoeste 0 -- -- 64
2020-06-11 20:00:00 19 32 Sudoeste 48 Oeste 0 -- -- 61
2020-06-11 19:00:00 19.1 32 Oeste 47 Sudoeste 0 -- -- 59
2020-06-11 18:00:00 20.3 33 Oeste 50 Sudoeste 0 -- -- 51
2020-06-11 17:00:00 21.6 35 Sudoeste 53 Sudoeste 0 -- -- 46
2020-06-11 16:00:00 20.9 32 Oeste 48 Oeste 0 -- -- 50
2020-06-11 15:00:00 21 33 Oeste 50 Oeste 0 -- -- 51
2020-06-11 14:00:00 21.5 28 Oeste 46 Oeste 0 -- -- 48
2020-06-11 13:00:00 20.4 25 Oeste 40 Oeste 0 -- -- 43
2020-06-11 12:00:00 19 26 Oeste 36 Oeste 0 -- -- 39
2020-06-11 11:00:00 16.8 23 Oeste 33 Oeste 0 -- -- 49
2020-06-11 10:00:00 13.9 20 Oeste 31 Oeste 0 -- -- 71
2020-06-11 09:00:00 11.3 19 Sudoeste 27 Oeste 0 -- -- 83
2020-06-11 08:00:00 9.2 18 Oeste 27 Sudoeste 0 -- -- 92
2020-06-11 07:00:00 9.2 13 Sudoeste 19 Sudoeste 0 -- -- 90
2020-06-11 06:00:00 9.8 11 Sudoeste 18 Sudoeste 0 -- -- 88
2020-06-11 05:00:00 10.8 14 Sudoeste 16 Oeste 0 -- -- 83
2020-06-11 04:00:00 11.5 12 Sudoeste 18 Sudoeste 0 -- -- 78
2020-06-11 03:00:00 12.8 15 Sudoeste 20 Oeste 0 -- -- 72
2020-06-11 02:00:00 14.4 14 Oeste 24 Oeste 0 -- -- 64
2020-06-11 01:00:00 15.2 15 Oeste 20 Oeste 0 -- -- 55
2020-06-11 00:00:00 16.7 15 Oeste 28 Oeste 0 -- -- 48